Time;durP1;ratioP1;P1;durP2;ratioP2;P2;SDS_P1;SDS_P2;PMS_P1;PMS_P2;Temp;Humidity;BMP_temperature;BMP_pressure;BME280_temperature;BME280_humidity;BME280_pressure;Samples;Min_cycle;Max_cycle;Signal;HPM_P1;HPM_P2
2023/09/04 00:03:24;;;;;;;1.77;0.73;;;;;;;15.77;58.66;98956.81;10429645;28;20049;-68
2023/09/04 00:08:44;;;;;;;1.90;0.65;;;;;;;15.62;58.81;98943.88;10430214;28;20073;-69
2023/09/04 00:14:05;;;;;;;2.17;0.60;;;;;;;15.49;59.16;98931.06;10430145;28;20088;-68
2023/09/04 00:19:26;;;;;;;4.22;0.60;;;;;;;15.40;59.47;98929.03;10458566;28;20391;-69
2023/09/04 00:24:47;;;;;;;2.63;0.70;;;;;;;15.33;59.74;98916.63;10457597;28;20072;-69
2023/09/04 00:30:08;;;;;;;2.30;0.57;;;;;;;15.28;60.02;98931.03;10442645;28;20061;-68
2023/09/04 00:35:29;;;;;;;2.28;0.68;;;;;;;15.23;59.89;98926.44;10438909;28;20067;-68
2023/09/04 00:40:50;;;;;;;1.15;0.57;;;;;;;15.22;59.90;98924.97;10454821;28;20451;-70
2023/09/04 00:46:11;;;;;;;1.17;0.52;;;;;;;15.18;60.19;98937.44;10429173;28;20049;-69
2023/09/04 00:51:32;;;;;;;1.52;0.73;;;;;;;15.14;60.31;98948.38;10442488;28;20045;-68
2023/09/04 00:56:52;;;;;;;2.00;0.88;;;;;;;15.05;60.42;98942.81;10442260;28;20069;-68
2023/09/04 01:02:15;;;;;;;1.98;0.60;;;;;;;15.01;60.74;98939.72;10450714;28;20528;-69
2023/09/04 01:07:40;;;;;;;2.20;0.63;;;;;;;14.91;61.11;98945.38;10436389;28;20088;-67
2023/09/04 01:13:06;;;;;;;2.35;0.60;;;;;;;14.85;61.11;98936.50;10418083;28;20033;-67
2023/09/04 01:18:28;;;;;;;2.65;0.70;;;;;;;14.78;61.24;98929.00;10419677;28;20033;-67
2023/09/04 01:23:49;;;;;;;3.45;0.85;;;;;;;14.71;61.38;98924.28;10421769;28;20091;-67
2023/09/04 01:29:22;;;;;;;1.58;0.60;;;;;;;14.64;61.78;98928.00;10407959;28;20053;-67
2023/09/04 01:34:44;;;;;;;2.13;0.70;;;;;;;14.58;62.00;98951.56;10408255;28;20047;-67
2023/09/04 01:40:07;;;;;;;1.83;0.80;;;;;;;14.56;62.16;98959.81;10421335;28;20107;-67
2023/09/04 01:45:28;;;;;;;1.65;0.50;;;;;;;14.54;62.49;98945.63;10407601;28;20067;-67
2023/09/04 01:50:49;;;;;;;2.80;0.65;;;;;;;14.52;62.43;98956.72;10418262;28;20091;-67
2023/09/04 01:56:09;;;;;;;2.83;0.68;;;;;;;14.49;62.86;98954.38;10418413;28;20057;-67
2023/09/04 02:01:30;;;;;;;2.28;0.70;;;;;;;14.45;62.52;98966.03;10429533;28;20491;-67
2023/09/04 02:06:52;;;;;;;2.17;0.60;;;;;;;14.44;62.74;98970.16;10427323;28;20049;-67
2023/09/04 02:12:12;;;;;;;1.98;0.70;;;;;;;14.42;62.80;98972.81;10441741;28;20061;-68
2023/09/04 02:17:33;;;;;;;3.33;0.80;;;;;;;14.39;63.17;98973.28;10455908;28;20045;-67
2023/09/04 02:22:54;;;;;;;1.85;0.70;;;;;;;14.37;63.40;98959.06;10426633;28;20411;-67
2023/09/04 02:28:15;;;;;;;1.67;0.60;;;;;;;14.34;63.66;98958.19;10446706;28;20068;-67
2023/09/04 02:33:35;;;;;;;2.33;0.68;;;;;;;14.36;63.58;98954.78;10448286;28;20068;-67
2023/09/04 02:38:56;;;;;;;3.80;1.08;;;;;;;14.36;63.63;98961.16;10433933;28;20111;-67
2023/09/04 02:44:17;;;;;;;2.15;0.68;;;;;;;14.33;64.01;98954.66;10447339;28;20098;-67
2023/09/04 02:49:38;;;;;;;3.53;0.77;;;;;;;14.33;64.23;98968.69;10419712;28;20079;-67
2023/09/04 02:54:59;;;;;;;3.25;0.80;;;;;;;14.31;63.93;98939.72;10461579;28;20041;-67
2023/09/04 03:00:20;;;;;;;3.50;0.80;;;;;;;14.26;64.16;98943.56;10445006;28;20486;-67
2023/09/04 03:05:41;;;;;;;1.70;0.65;;;;;;;14.26;64.44;98954.81;10444917;28;20126;-67
2023/09/04 03:11:01;;;;;;;3.70;0.73;;;;;;;14.23;64.35;98942.69;10433092;28;20048;-67
2023/09/04 03:16:22;;;;;;;3.05;0.82;;;;;;;14.19;64.51;98941.66;10428586;28;20052;-67
2023/09/04 03:21:44;;;;;;;3.88;0.65;;;;;;;14.14;64.72;98937.81;10444349;28;20080;-67
2023/09/04 03:27:04;;;;;;;3.22;0.93;;;;;;;14.16;64.71;98934.41;10435264;28;20103;-67
2023/09/04 03:32:26;;;;;;;1.98;0.73;;;;;;;14.13;65.01;98932.78;10431446;28;20407;-67
2023/09/04 03:37:47;;;;;;;2.72;0.70;;;;;;;14.14;65.06;98939.88;10403456;28;20049;-67
2023/09/04 03:43:08;;;;;;;1.90;0.82;;;;;;;14.08;64.97;98942.25;10392953;28;20041;-67
2023/09/04 03:48:29;;;;;;;5.32;0.98;;;;;;;14.04;65.17;98951.84;10404720;28;20450;-68
2023/09/04 03:53:50;;;;;;;2.60;1.08;;;;;;;14.02;65.33;98943.28;10412179;28;20037;-67
2023/09/04 03:59:12;;;;;;;6.18;1.10;;;;;;;14.01;65.73;98944.63;10393660;28;20046;-68
2023/09/04 04:04:33;;;;;;;2.45;0.88;;;;;;;14.03;65.54;98941.22;10463049;28;20077;-67
2023/09/04 04:09:54;;;;;;;1.83;0.90;;;;;;;14.01;65.81;98967.09;10433117;28;20045;-68
2023/09/04 04:15:15;;;;;;;3.53;0.80;;;;;;;14.02;65.85;98970.63;10443894;28;20045;-67
2023/09/04 04:20:37;;;;;;;2.03;0.70;;;;;;;14.02;65.97;98973.44;10432064;28;20164;-67
2023/09/04 04:25:58;;;;;;;5.15;0.80;;;;;;;14.06;65.97;98973.72;10394118;28;20060;-67
2023/09/04 04:31:21;;;;;;;2.03;0.73;;;;;;;14.07;65.98;98980.06;10422510;28;20041;-67
2023/09/04 04:36:42;;;;;;;6.28;1.23;;;;;;;14.10;66.04;98999.31;10409643;28;20052;-67
2023/09/04 04:42:03;;;;;;;2.88;0.73;;;;;;;14.11;66.05;99023.25;10400992;28;20076;-67
2023/09/04 04:47:26;;;;;;;2.53;1.10;;;;;;;14.18;66.12;99016.72;10419327;28;20065;-67
2023/09/04 04:52:48;;;;;;;3.60;0.90;;;;;;;14.61;66.34;99017.06;10427556;28;20064;-67
2023/09/04 04:58:11;;;;;;;2.35;0.90;;;;;;;15.15;66.03;99022.25;10424502;28;20045;-68
2023/09/04 05:03:31;;;;;;;3.92;1.10;;;;;;;15.70;65.57;99023.97;10408020;28;20487;-68
2023/09/04 05:08:54;;;;;;;1.98;0.63;;;;;;;16.65;65.04;99033.66;10408180;28;20152;-68
2023/09/04 05:14:14;;;;;;;4.07;0.90;;;;;;;17.54;63.88;99019.50;10456276;28;20502;-68
2023/09/04 05:19:35;;;;;;;3.08;0.90;;;;;;;22.82;59.33;99027.53;10428144;28;20068;-68
2023/09/04 05:24:56;;;;;;;4.50;1.00;;;;;;;28.87;49.48;99032.03;10456241;28;20065;-65
2023/09/04 05:30:17;;;;;;;2.72;0.95;;;;;;;32.59;39.52;99037.09;10424665;28;20513;-67
2023/09/04 05:35:37;;;;;;;3.38;0.70;;;;;;;36.02;34.31;99048.56;10444526;28;20059;-67
2023/09/04 05:40:58;;;;;;;1.80;0.60;;;;;;;37.90;28.64;99043.03;10449651;28;20071;-71
2023/09/04 05:46:19;;;;;;;2.20;0.80;;;;;;;39.96;24.91;99050.06;10395867;28;20487;-70
2023/09/04 05:51:40;;;;;;;2.80;0.60;;;;;;;41.50;21.07;99043.44;10411472;28;20129;-70
2023/09/04 05:57:00;;;;;;;1.73;0.70;;;;;;;43.25;19.08;99056.22;10411999;28;20498;-71
2023/09/04 06:02:21;;;;;;;1.63;0.57;;;;;;;45.35;17.44;99056.28;10420318;28;20054;-71
2023/09/04 06:07:42;;;;;;;4.20;0.50;;;;;;;46.54;15.75;99044.53;10421699;28;20396;-71
2023/09/04 06:13:03;;;;;;;3.00;0.60;;;;;;;47.13;13.52;99041.00;10421294;28;20476;-72
2023/09/04 06:18:23;;;;;;;2.17;0.40;;;;;;;49.09;12.71;99043.06;10407039;28;20064;-74
2023/09/04 06:23:45;;;;;;;2.85;0.68;;;;;;;50.60;11.39;99045.44;10397741;28;20064;-75
2023/09/04 06:29:06;;;;;;;3.65;0.77;;;;;;;53.48;9.55;99049.38;10441395;28;20096;-72
2023/09/04 06:34:28;;;;;;;3.55;0.73;;;;;;;56.11;8.02;99057.56;10436184;28;20133;-72
2023/09/04 06:39:49;;;;;;;2.88;0.70;;;;;;;57.27;6.31;99048.69;10449960;28;20120;-72
2023/09/04 06:45:10;;;;;;;3.03;0.40;;;;;;;58.26;5.63;99045.59;10447183;28;20163;-72
2023/09/04 06:50:30;;;;;;;1.77;0.47;;;;;;;57.90;4.61;99027.63;10461355;28;20076;-72
2023/09/04 06:55:52;;;;;;;3.30;0.40;;;;;;;57.85;5.28;99026.72;10443443;28;20077;-73
2023/09/04 07:01:12;;;;;;;1.75;0.43;;;;;;;58.33;4.64;99019.28;10459732;28;20121;-73
2023/09/04 07:06:33;;;;;;;3.45;0.57;;;;;;;58.29;4.33;99026.41;10501544;28;20126;-74
2023/09/04 07:11:54;;;;;;;2.53;0.60;;;;;;;59.39;4.08;99035.16;10501984;28;20115;-73
2023/09/04 07:17:15;;;;;;;0.80;0.50;;;;;;;60.81;4.00;99020.69;10488117;28;20060;-73
2023/09/04 07:22:35;;;;;;;1.08;0.50;;;;;;;59.44;4.25;99032.34;10502571;28;20079;-73
2023/09/04 07:27:56;;;;;;;1.88;0.60;;;;;;;59.05;3.94;99024.06;10494702;28;20079;-73
2023/09/04 07:33:18;;;;;;;1.73;0.50;;;;;;;57.70;4.79;99020.81;10491518;28;20083;-72
2023/09/04 07:38:44;;;;;;;2.72;0.50;;;;;;;59.86;3.98;99014.69;10437525;28;20045;-72
2023/09/04 07:44:05;;;;;;;1.52;0.80;;;;;;;60.19;3.79;99020.56;10423071;28;20034;-71
2023/09/04 07:49:26;;;;;;;3.05;0.65;;;;;;;60.57;3.22;99018.28;10437394;28;20136;-72
2023/09/04 07:54:48;;;;;;;1.20;0.70;;;;;;;58.88;3.76;99013.88;10437494;28;20062;-72
2023/09/04 08:00:10;;;;;;;1.70;0.73;;;;;;;58.83;3.46;99015.94;10415484;28;20052;-72
2023/09/04 08:05:33;;;;;;;1.33;0.80;;;;;;;58.23;4.34;99011.41;10435343;28;20332;-72
2023/09/04 08:10:54;;;;;;;2.47;1.00;;;;;;;57.10;3.82;99007.69;10424065;28;20061;-72
2023/09/04 08:16:15;;;;;;;1.23;0.90;;;;;;;56.96;4.57;99000.22;10438221;28;20081;-73
2023/09/04 08:21:36;;;;;;;1.48;0.80;;;;;;;56.73;4.14;98986.81;10437237;28;20123;-72
2023/09/04 08:26:57;;;;;;;2.45;0.70;;;;;;;57.18;4.54;98970.88;10437302;28;20048;-73
2023/09/04 08:32:18;;;;;;;1.40;0.70;;;;;;;56.13;3.98;98965.22;10423289;28;20091;-74
2023/09/04 08:37:39;;;;;;;2.40;1.00;;;;;;;55.50;4.09;98956.56;10420717;28;20049;-73
2023/09/04 08:43:00;;;;;;;1.75;0.93;;;;;;;55.99;5.17;98957.00;10441705;28;20044;-72
2023/09/04 08:48:21;;;;;;;2.40;1.20;;;;;;;55.82;4.99;98951.91;10457600;28;20057;-73
2023/09/04 08:53:42;;;;;;;1.42;0.90;;;;;;;56.27;4.07;98944.41;10428835;28;20045;-73
2023/09/04 08:59:03;;;;;;;1.45;1.20;;;;;;;56.32;5.06;98952.06;10457391;28;20473;-74
2023/09/04 09:04:24;;;;;;;1.60;1.48;;;;;;;54.61;4.83;98953.22;10428035;28;20415;-74
2023/09/04 09:09:47;;;;;;;2.53;1.17;;;;;;;53.97;5.43;98949.47;10412987;28;20080;-76
2023/09/04 09:15:08;;;;;;;2.72;1.58;;;;;;;54.03;5.34;98940.63;10427199;28;20487;-72
2023/09/04 09:20:34;;;;;;;1.55;1.00;;;;;;;52.97;5.88;98939.81;10455526;28;20103;-72
2023/09/04 09:25:55;;;;;;;0.98;0.90;;;;;;;53.56;5.03;98934.56;10439254;28;20061;-72
2023/09/04 09:31:16;;;;;;;2.22;1.25;;;;;;;53.28;4.84;98944.50;10450886;28;20049;-72
2023/09/04 09:36:37;;;;;;;1.25;1.00;;;;;;;52.94;5.40;98938.59;10462903;28;20597;-72
2023/09/04 09:42:00;;;;;;;2.00;1.10;;;;;;;54.07;4.97;98941.88;10454323;28;20129;-74
2023/09/04 09:47:22;;;;;;;1.35;1.10;;;;;;;55.46;4.00;98953.97;10468979;28;20390;-73
2023/09/04 09:52:58;;;;;;;1.83;1.15;;;;;;;55.22;4.25;98951.06;10469695;28;20049;-73
2023/09/04 09:58:20;;;;;;;1.50;1.33;;;;;;;55.47;4.47;98939.69;10454985;28;20107;-73
2023/09/04 10:03:43;;;;;;;1.27;1.05;;;;;;;53.47;4.42;98947.25;10475895;28;20049;-73
2023/09/04 10:09:05;;;;;;;2.00;0.90;;;;;;;53.14;5.14;98954.72;10482364;28;20051;-72
2023/09/04 10:14:31;;;;;;;1.60;0.80;;;;;;;52.04;5.05;98946.28;10496272;28;20040;-73
2023/09/04 10:19:52;;;;;;;2.35;0.50;;;;;;;51.81;5.23;98953.38;10482912;28;20383;-73
2023/09/04 10:25:20;;;;;;;1.17;0.60;;;;;;;51.69;5.28;98946.16;10495660;28;20068;-73
2023/09/04 10:30:42;;;;;;;5.43;0.57;;;;;;;52.73;5.75;98934.41;10510687;28;20040;-73
2023/09/04 10:36:03;;;;;;;1.25;0.60;;;;;;;53.53;4.12;98930.38;10481339;28;20049;-72
2023/09/04 10:41:25;;;;;;;0.93;0.50;;;;;;;52.45;5.40;98928.66;10467687;28;20044;-74
2023/09/04 10:46:55;;;;;;;0.95;0.57;;;;;;;53.76;5.10;98935.72;10491574;28;20049;-73
2023/09/04 10:52:17;;;;;;;1.17;0.63;;;;;;;54.98;5.34;98921.22;10488703;28;20041;-74
2023/09/04 10:58:01;;;;;;;1.45;0.70;;;;;;;56.21;4.22;98919.44;10492664;28;20055;-73
2023/09/04 11:03:23;;;;;;;1.45;0.60;;;;;;;53.23;4.31;98912.94;10463719;28;20417;-73
2023/09/04 11:08:50;;;;;;;1.55;0.60;;;;;;;52.72;4.61;98897.25;10488232;28;20036;-73
2023/09/04 11:14:12;;;;;;;3.67;0.45;;;;;;;50.47;5.53;98904.66;10470307;28;20095;-73
2023/09/04 11:19:35;;;;;;;1.60;0.57;;;;;;;49.15;6.34;98906.31;10447393;28;20064;-73
2023/09/04 11:24:58;;;;;;;1.00;0.40;;;;;;;47.59;7.33;98912.50;10431225;28;20475;-72
2023/09/04 11:30:19;;;;;;;0.85;0.30;;;;;;;48.15;6.70;98913.22;10459479;28;20041;-73
2023/09/04 11:35:40;;;;;;;1.98;0.30;;;;;;;47.63;6.83;98908.56;10432044;28;20053;-73
2023/09/04 11:41:18;;;;;;;0.60;0.30;;;;;;;47.17;6.04;98910.00;10445361;28;20394;-74
2023/09/04 11:46:39;;;;;;;0.93;0.40;;;;;;;41.66;8.25;98916.81;10431167;28;20068;-71
2023/09/04 11:52:01;;;;;;;0.50;0.30;;;;;;;36.34;11.50;98927.44;10430953;28;20094;-71
2023/09/04 11:57:22;;;;;;;1.13;0.32;;;;;;;34.06;12.78;98927.34;10443762;28;20045;-70
2023/09/04 12:02:43;;;;;;;1.38;0.40;;;;;;;32.13;14.85;98922.97;10422422;28;20052;-71
2023/09/04 12:08:05;;;;;;;1.25;0.40;;;;;;;31.53;15.13;98915.66;10403153;28;20468;-71
2023/09/04 12:13:26;;;;;;;2.60;0.45;;;;;;;30.77;15.84;98920.38;10402931;28;20042;-71
2023/09/04 12:18:48;;;;;;;1.20;0.60;;;;;;;29.65;17.55;98907.97;10423679;28;20045;-71
2023/09/04 12:24:13;;;;;;;1.73;0.40;;;;;;;28.76;18.93;98902.59;10423165;28;20037;-71
2023/09/04 12:29:35;;;;;;;0.70;0.40;;;;;;;28.50;19.10;98893.59;10423255;28;20041;-71
2023/09/04 12:35:01;;;;;;;2.40;0.57;;;;;;;28.05;19.36;98890.03;10402754;28;20045;-71
2023/09/04 12:40:23;;;;;;;3.08;0.70;;;;;;;27.70;20.51;98896.59;10442794;28;20475;-70
2023/09/04 12:45:44;;;;;;;2.92;0.60;;;;;;;27.51;21.10;98884.78;10457746;28;20120;-70
2023/09/04 12:51:05;;;;;;;3.30;0.53;;;;;;;27.89;20.87;98881.13;10442313;28;20041;-70
2023/09/04 12:56:26;;;;;;;1.05;0.40;;;;;;;28.63;19.99;98877.25;10412104;28;20395;-70
2023/09/04 13:01:47;;;;;;;2.03;0.30;;;;;;;28.08;20.02;98877.16;10417881;28;20095;-70
2023/09/04 13:07:08;;;;;;;1.67;0.57;;;;;;;27.80;20.44;98873.84;10442196;28;20487;-70
2023/09/04 13:12:30;;;;;;;2.23;0.50;;;;;;;27.84;21.45;98859.56;10441438;28;20120;-70
2023/09/04 13:17:52;;;;;;;1.58;0.65;;;;;;;27.78;21.96;98859.44;10424363;28;20048;-70
2023/09/04 13:23:13;;;;;;;2.65;0.68;;;;;;;27.49;23.33;98844.59;10387221;28;20037;-70
2023/09/04 13:28:34;;;;;;;5.07;0.60;;;;;;;27.24;23.99;98842.72;10433402;28;20182;-70
2023/09/04 13:33:56;;;;;;;1.90;0.68;;;;;;;27.08;24.88;98832.38;10427681;28;20044;-70
2023/09/04 13:39:16;;;;;;;2.55;0.52;;;;;;;27.08;24.76;98826.66;10456041;28;20041;-71
2023/09/04 13:44:38;;;;;;;3.70;0.50;;;;;;;27.22;25.13;98828.34;10441182;28;20049;-71
2023/09/04 13:49:59;;;;;;;1.58;0.50;;;;;;;26.95;25.11;98824.94;10455945;28;20045;-70
2023/09/04 13:55:20;;;;;;;2.92;0.57;;;;;;;26.65;25.97;98827.19;10427060;28;20052;-70
2023/09/04 14:00:41;;;;;;;1.25;0.50;;;;;;;26.44;26.58;98821.03;10441038;28;20037;-69
2023/09/04 14:06:03;;;;;;;1.83;0.73;;;;;;;26.32;26.85;98809.28;10436885;28;20054;-71
2023/09/04 14:11:24;;;;;;;3.55;0.70;;;;;;;26.18;27.28;98817.56;10423377;28;20112;-85
2023/09/04 14:16:46;;;;;;;5.07;0.70;;;;;;;25.93;28.34;98814.13;10419081;28;20394;-83
2023/09/04 14:22:07;;;;;;;3.47;0.67;;;;;;;25.96;28.44;98809.94;10390965;28;20083;-89
2023/09/04 14:27:29;;;;;;;1.65;0.60;;;;;;;26.05;28.84;98801.53;10382609;28;20045;-88
2023/09/04 14:32:52;;;;;;;2.47;0.50;;;;;;;25.74;29.40;98795.09;10410195;28;20399;-86
2023/09/04 14:38:13;;;;;;;2.40;0.50;;;;;;;25.56;29.57;98797.47;10394637;28;20049;-88
2023/09/04 14:43:34;;;;;;;3.33;0.50;;;;;;;25.66;29.86;98794.88;10380377;28;20458;-86
2023/09/04 14:48:55;;;;;;;1.77;0.60;;;;;;;25.65;30.22;98799.84;10380182;28;20049;-87
2023/09/04 14:54:18;;;;;;;3.45;0.55;;;;;;;25.42;30.79;98794.28;10393475;28;20056;-85
2023/09/04 14:59:39;;;;;;;1.53;0.67;;;;;;;25.38;30.88;98781.34;10405903;28;20034;-69
2023/09/04 15:05:00;;;;;;;3.92;0.40;;;;;;;25.08;31.24;98794.81;10391621;28;20510;-69
2023/09/04 15:10:22;;;;;;;7.00;1.10;;;;;;;25.09;31.56;98787.69;10413467;28;20049;-69
2023/09/04 15:15:44;;;;;;;2.25;0.63;;;;;;;25.09;31.60;98790.56;10419832;28;20480;-75
2023/09/04 15:21:07;;;;;;;2.58;0.50;;;;;;;25.00;31.98;98772.47;10404835;28;20076;-72
2023/09/04 15:26:28;;;;;;;2.55;0.73;;;;;;;24.90;31.89;98783.63;10404965;28;20099;-72
2023/09/04 15:31:49;;;;;;;5.20;0.70;;;;;;;24.57;32.97;98773.41;10403670;28;20411;-71
2023/09/04 15:37:10;;;;;;;3.67;0.90;;;;;;;24.43;33.23;98778.72;10404219;28;20107;-71
2023/09/04 15:42:30;;;;;;;2.15;0.70;;;;;;;24.30;33.82;98766.19;10390554;28;20044;-71
2023/09/04 15:47:51;;;;;;;2.25;0.57;;;;;;;24.29;33.65;98764.72;10390441;28;20073;-71
2023/09/04 15:53:12;;;;;;;1.52;0.52;;;;;;;24.22;34.00;98761.00;10390125;28;20095;-71
2023/09/04 15:58:33;;;;;;;3.60;0.70;;;;;;;24.15;34.11;98758.63;10403263;28;20056;-74
2023/09/04 16:03:53;;;;;;;1.60;0.50;;;;;;;24.12;34.32;98762.78;10403541;28;20053;-73
2023/09/04 16:09:17;;;;;;;1.27;0.57;;;;;;;24.03;34.29;98761.84;10375326;28;20041;-73
2023/09/04 16:14:38;;;;;;;1.77;0.50;;;;;;;23.95;34.93;98765.16;10416841;28;20502;-69
2023/09/04 16:19:58;;;;;;;1.38;0.50;;;;;;;23.86;35.03;98769.16;10428768;28;20048;-70
2023/09/04 16:25:19;;;;;;;1.35;0.50;;;;;;;23.83;35.11;98764.75;10457723;28;20049;-76
2023/09/04 16:30:42;;;;;;;2.33;1.00;;;;;;;23.69;35.71;98770.75;10443583;28;20059;-72
2023/09/04 16:36:03;;;;;;;3.72;0.98;;;;;;;23.55;35.71;98764.59;10443165;28;20048;-73
2023/09/04 16:41:24;;;;;;;3.03;0.55;;;;;;;23.45;36.64;98769.19;10415217;28;20061;-74
2023/09/04 16:46:45;;;;;;;1.83;0.70;;;;;;;23.32;36.34;98770.94;10414446;28;20390;-71
2023/09/04 16:52:06;;;;;;;4.38;1.00;;;;;;;23.17;36.68;98774.69;10429293;28;20049;-70
2023/09/04 16:57:27;;;;;;;2.08;0.90;;;;;;;23.07;37.08;98767.28;10457183;28;20127;-73
2023/09/04 17:02:49;;;;;;;3.13;0.80;;;;;;;22.94;37.41;98771.06;10403053;28;20049;-71
2023/09/04 17:08:10;;;;;;;2.67;1.00;;;;;;;22.81;37.83;98772.75;10410593;28;20045;-71
2023/09/04 17:13:31;;;;;;;2.13;0.90;;;;;;;22.71;37.84;98780.19;10395453;28;20638;-71
2023/09/04 17:18:52;;;;;;;1.40;0.63;;;;;;;22.64;38.21;98769.97;10427802;28;20495;-71
2023/09/04 17:24:12;;;;;;;5.20;0.80;;;;;;;22.51;38.44;98771.66;10441312;28;20041;-71
2023/09/04 17:29:33;;;;;;;1.88;0.88;;;;;;;22.39;39.02;98771.94;10456305;28;20065;-70
2023/09/04 17:34:54;;;;;;;4.68;0.80;;;;;;;22.22;38.77;98764.16;10427564;28;20060;-71
2023/09/04 17:40:16;;;;;;;2.08;0.70;;;;;;;21.99;39.29;98754.75;10422767;28;20475;-71
2023/09/04 17:45:37;;;;;;;1.23;0.80;;;;;;;21.80;39.85;98763.94;10425574;28;20076;-69
2023/09/04 17:51:03;;;;;;;1.98;0.57;;;;;;;21.63;40.37;98764.69;10440802;28;20118;-66
2023/09/04 17:56:23;;;;;;;2.20;0.80;;;;;;;21.49;41.05;98766.97;10431164;28;20102;-75
2023/09/04 18:01:44;;;;;;;2.13;1.02;;;;;;;21.27;41.23;98764.66;10393587;28;20060;-74
2023/09/04 18:07:05;;;;;;;4.75;1.55;;;;;;;21.10;41.83;98768.91;10393978;28;20052;-73
2023/09/04 18:12:26;;;;;;;2.35;1.30;;;;;;;20.91;42.36;98769.50;10407786;28;20049;-75
2023/09/04 18:17:48;;;;;;;3.58;1.55;;;;;;;20.75;42.79;98778.06;10408789;28;20475;-68
2023/09/04 18:23:09;;;;;;;4.03;1.70;;;;;;;20.62;42.92;98778.16;10421199;28;20061;-69
2023/09/04 18:28:29;;;;;;;1.92;0.90;;;;;;;20.55;43.11;98777.13;10452860;28;20083;-72
2023/09/04 18:33:50;;;;;;;2.00;1.00;;;;;;;20.48;42.70;98778.97;10420405;28;20163;-69
2023/09/04 18:39:11;;;;;;;4.65;0.98;;;;;;;20.34;43.46;98780.41;10433670;28;20071;-69
2023/09/04 18:44:32;;;;;;;2.83;1.10;;;;;;;20.31;43.36;98790.94;10462429;28;20065;-69
2023/09/04 18:49:53;;;;;;;2.88;1.00;;;;;;;20.20;43.24;98789.72;10446776;28;20506;-69
2023/09/04 18:55:14;;;;;;;3.00;1.25;;;;;;;20.10;43.46;98788.53;10433023;28;20075;-69
2023/09/04 19:00:35;;;;;;;2.60;1.20;;;;;;;20.04;43.20;98794.63;10432987;28;20493;-71
2023/09/04 19:05:56;;;;;;;3.40;1.17;;;;;;;19.95;43.35;98802.03;10432122;28;20083;-71
2023/09/04 19:11:18;;;;;;;1.85;1.02;;;;;;;19.83;43.40;98807.13;10418453;28;20102;-69
2023/09/04 19:16:39;;;;;;;2.80;1.45;;;;;;;19.76;43.36;98811.03;10434580;28;20481;-69
2023/09/04 19:22:00;;;;;;;3.35;1.38;;;;;;;19.70;43.76;98816.41;10461337;28;20486;-68
2023/09/04 19:27:23;;;;;;;3.03;1.58;;;;;;;19.64;43.62;98819.66;10459462;28;20064;-68
2023/09/04 19:32:48;;;;;;;3.03;1.20;;;;;;;19.62;43.67;98816.75;10448204;28;20068;-70
2023/09/04 19:38:11;;;;;;;2.60;0.95;;;;;;;19.54;43.57;98813.47;10433223;28;20048;-72
2023/09/04 19:43:32;;;;;;;3.75;1.60;;;;;;;19.48;43.71;98823.75;10444397;28;20052;-74
2023/09/04 19:48:53;;;;;;;2.28;1.00;;;;;;;19.39;43.82;98816.97;10425626;28;20049;-72
2023/09/04 19:54:14;;;;;;;2.20;0.80;;;;;;;19.32;44.18;98818.03;10431545;28;20445;-72
2023/09/04 19:59:37;;;;;;;2.35;1.20;;;;;;;19.15;44.53;98822.16;10431345;28;20045;-74
2023/09/04 20:04:58;;;;;;;4.63;1.27;;;;;;;19.05;44.71;98813.13;10439879;28;20053;-71
2023/09/04 20:10:20;;;;;;;3.60;1.40;;;;;;;18.96;45.06;98823.31;10390644;28;20065;-75
2023/09/04 20:15:40;;;;;;;4.57;1.15;;;;;;;18.90;45.24;98825.06;10438266;28;20041;-72
2023/09/04 20:21:02;;;;;;;3.63;1.20;;;;;;;18.86;45.16;98811.47;10401948;28;20383;-74
2023/09/04 20:26:23;;;;;;;2.47;1.00;;;;;;;18.88;45.22;98814.38;10409065;28;20060;-73
2023/09/04 20:31:58;;;;;;;2.92;1.20;;;;;;;18.83;45.34;98815.56;10412452;28;20064;-74
2023/09/04 20:37:20;;;;;;;2.38;0.90;;;;;;;18.75;45.38;98812.31;10394816;28;20045;-74
2023/09/04 20:42:40;;;;;;;3.33;1.20;;;;;;;18.66;45.76;98819.63;10428634;28;20082;-73
2023/09/04 20:48:02;;;;;;;3.25;1.23;;;;;;;18.56;46.50;98827.53;10407707;28;20052;-73
2023/09/04 20:53:23;;;;;;;4.93;1.17;;;;;;;18.25;46.54;98828.72;10414085;28;20037;-73
2023/09/04 20:58:44;;;;;;;3.85;1.65;;;;;;;18.00;47.03;98829.47;10407372;28;20098;-73
2023/09/04 21:04:06;;;;;;;3.97;1.67;;;;;;;17.88;47.38;98830.91;10394587;28;20049;-74
2023/09/04 23:24:59;;;;;;;3.08;1.30;;;;;;;16.70;57.39;98799.38;10437359;28;20079;-75
2023/09/04 23:30:20;;;;;;;3.72;1.20;;;;;;;16.69;57.84;98817.63;10460178;28;20057;-75
2023/09/04 23:36:04;;;;;;;2.40;1.10;;;;;;;16.68;58.08;98809.75;10461032;28;20483;-74
2023/09/04 23:47:05;;;;;;;2.63;1.05;;;;;;;16.55;58.67;98808.28;10447970;28;19948;-74
2023/09/04 23:52:27;;;;;;;1.40;0.80;;;;;;;16.56;58.68;98804.84;10445101;28;20491;-75
2023/09/04 23:57:48;;;;;;;1.67;1.05;;;;;;;16.57;58.37;98785.84;10453761;28;20086;-75
